sensor_id;sensor_type;location;lat;lon;timestamp;pressure;altitude;pressure_sealevel;temperature
80537;BMP280;69867;47.074;15.404;2023-12-20T00:00:54;97309.19;;;-0.46
80537;BMP280;69867;47.074;15.404;2023-12-20T00:03:19;97310.88;;;-0.47
80537;BMP280;69867;47.074;15.404;2023-12-20T00:05:45;97309.16;;;-0.48
80537;BMP280;69867;47.074;15.404;2023-12-20T00:08:11;97299.75;;;-0.50
80537;BMP280;69867;47.074;15.404;2023-12-20T00:10:36;97296.34;;;-0.51
80537;BMP280;69867;47.074;15.404;2023-12-20T00:13:02;97296.34;;;-0.51
80537;BMP280;69867;47.074;15.404;2023-12-20T00:15:27;97290.38;;;-0.53
80537;BMP280;69867;47.074;15.404;2023-12-20T00:17:52;97288.66;;;-0.54
80537;BMP280;69867;47.074;15.404;2023-12-20T00:20:18;97284.41;;;-0.53
80537;BMP280;69867;47.074;15.404;2023-12-20T00:22:43;97285.25;;;-0.54
80537;BMP280;69867;47.074;15.404;2023-12-20T00:25:08;97281.81;;;-0.56
80537;BMP280;69867;47.074;15.404;2023-12-20T00:27:34;97277.53;;;-0.59
80537;BMP280;69867;47.074;15.404;2023-12-20T00:29:59;97262.22;;;-0.59
80537;BMP280;69867;47.074;15.404;2023-12-20T00:32:24;97263.03;;;-0.60
80537;BMP280;69867;47.074;15.404;2023-12-20T00:34:49;97257.09;;;-0.59
80537;BMP280;69867;47.074;15.404;2023-12-20T00:37:15;97262.22;;;-0.59
80537;BMP280;69867;47.074;15.404;2023-12-20T00:39:40;97257.94;;;-0.60
80537;BMP280;69867;47.074;15.404;2023-12-20T00:42:05;97253.69;;;-0.61
80537;BMP280;69867;47.074;15.404;2023-12-20T00:44:31;97258.78;;;-0.59
80537;BMP280;69867;47.074;15.404;2023-12-20T00:46:57;97251.97;;;-0.60
80537;BMP280;69867;47.074;15.404;2023-12-20T00:49:22;97246.00;;;-0.62
80537;BMP280;69867;47.074;15.404;2023-12-20T00:51:48;97240.88;;;-0.64
80537;BMP280;69867;47.074;15.404;2023-12-20T00:54:13;97232.34;;;-0.66
80537;BMP280;69867;47.074;15.404;2023-12-20T00:56:38;97232.34;;;-0.66
80537;BMP280;69867;47.074;15.404;2023-12-20T00:59:04;97228.91;;;-0.68
80537;BMP280;69867;47.074;15.404;2023-12-20T01:01:29;97231.44;;;-0.70
80537;BMP280;69867;47.074;15.404;2023-12-20T01:03:54;97215.25;;;-0.70
80537;BMP280;69867;47.074;15.404;2023-12-20T01:06:20;97217.78;;;-0.72
80537;BMP280;69867;47.074;15.404;2023-12-20T01:08:45;97223.72;;;-0.73
80537;BMP280;69867;47.074;15.404;2023-12-20T01:11:10;97220.31;;;-0.73
80537;BMP280;69867;47.074;15.404;2023-12-20T01:13:36;97216.00;;;-0.77
80537;BMP280;69867;47.074;15.404;2023-12-20T01:16:01;97220.31;;;-0.75
80537;BMP280;69867;47.074;15.404;2023-12-20T01:18:26;97220.28;;;-0.76
80537;BMP280;69867;47.074;15.404;2023-12-20T01:20:52;97216.88;;;-0.75
80537;BMP280;69867;47.074;15.404;2023-12-20T01:23:17;97223.72;;;-0.73
80537;BMP280;69867;47.074;15.404;2023-12-20T01:25:42;97216.09;;;-0.73
80537;BMP280;69867;47.074;15.404;2023-12-20T01:28:08;97216.06;;;-0.74
80537;BMP280;69867;47.074;15.404;2023-12-20T01:30:33;97219.38;;;-0.80
80537;BMP280;69867;47.074;15.404;2023-12-20T01:33:00;97221.91;;;-0.81
80537;BMP280;69867;47.074;15.404;2023-12-20T01:35:25;97216.75;;;-0.84
80537;BMP280;69867;47.074;15.404;2023-12-20T01:37:50;97211.69;;;-0.81
80537;BMP280;69867;47.074;15.404;2023-12-20T01:40:16;97209.19;;;-0.78
80537;BMP280;69867;47.074;15.404;2023-12-20T01:42:41;97213.47;;;-0.77
80537;BMP280;69867;47.074;15.404;2023-12-20T01:45:07;97206.59;;;-0.81
80537;BMP280;69867;47.074;15.404;2023-12-20T01:47:32;97198.88;;;-0.86
80537;BMP280;69867;47.074;15.404;2023-12-20T01:49:58;97198.91;;;-0.84
80537;BMP280;69867;47.074;15.404;2023-12-20T01:52:24;97198.84;;;-0.87
80537;BMP280;69867;47.074;15.404;2023-12-20T01:54:50;97192.91;;;-0.88
80537;BMP280;69867;47.074;15.404;2023-12-20T01:57:16;97184.34;;;-0.91
80537;BMP280;69867;47.074;15.404;2023-12-20T01:59:42;97175.81;;;-0.93
80537;BMP280;69867;47.074;15.404;2023-12-20T02:02:07;97185.19;;;-0.91
80537;BMP280;69867;47.074;15.404;2023-12-20T02:04:33;97172.44;;;-0.92
80537;BMP280;69867;47.074;15.404;2023-12-20T02:06:58;97174.97;;;-0.92
80537;BMP280;69867;47.074;15.404;2023-12-20T02:09:24;97165.59;;;-0.93
80537;BMP280;69867;47.074;15.404;2023-12-20T02:11:49;97157.94;;;-0.95
80537;BMP280;69867;47.074;15.404;2023-12-20T02:14:14;97159.63;;;-0.95
80537;BMP280;69867;47.074;15.404;2023-12-20T02:16:40;97154.56;;;-0.94
80537;BMP280;69867;47.074;15.404;2023-12-20T02:19:13;97145.16;;;-0.97
80537;BMP280;69867;47.074;15.404;2023-12-20T02:21:38;97142.56;;;-1.00
80537;BMP280;69867;47.074;15.404;2023-12-20T02:24:04;97140.81;;;-1.02
80537;BMP280;69867;47.074;15.404;2023-12-20T02:26:29;97129.72;;;-1.06
80537;BMP280;69867;47.074;15.404;2023-12-20T02:28:54;97127.13;;;-1.09
80537;BMP280;69867;47.074;15.404;2023-12-20T02:31:23;97124.59;;;-1.09
80537;BMP280;69867;47.074;15.404;2023-12-20T02:33:48;97117.75;;;-1.11
80537;BMP280;69867;47.074;15.404;2023-12-20T02:36:14;97109.25;;;-1.12
80537;BMP280;69867;47.074;15.404;2023-12-20T02:38:39;97110.91;;;-1.14
80537;BMP280;69867;47.074;15.404;2023-12-20T02:41:04;97102.44;;;-1.13
80537;BMP280;69867;47.074;15.404;2023-12-20T02:43:30;97103.25;;;-1.15
80537;BMP280;69867;47.074;15.404;2023-12-20T02:45:55;97094.72;;;-1.17
80537;BMP280;69867;47.074;15.404;2023-12-20T02:48:20;97092.16;;;-1.17
80537;BMP280;69867;47.074;15.404;2023-12-20T02:50:47;97087.06;;;-1.19
80537;BMP280;69867;47.074;15.404;2023-12-20T02:53:13;97074.28;;;-1.20
80537;BMP280;69867;47.074;15.404;2023-12-20T02:55:38;97077.66;;;-1.21
80537;BMP280;69867;47.074;15.404;2023-12-20T02:58:04;97072.50;;;-1.26
80537;BMP280;69867;47.074;15.404;2023-12-20T03:00:29;97066.53;;;-1.26
80537;BMP280;69867;47.074;15.404;2023-12-20T03:02:54;97073.34;;;-1.27
80537;BMP280;69867;47.074;15.404;2023-12-20T03:05:20;97060.56;;;-1.28
80537;BMP280;69867;47.074;15.404;2023-12-20T03:07:45;97058.03;;;-1.27
80537;BMP280;69867;47.074;15.404;2023-12-20T03:10:10;97047.84;;;-1.27
80537;BMP280;69867;47.074;15.404;2023-12-20T03:12:35;97048.72;;;-1.26
80537;BMP280;69867;47.074;15.404;2023-12-20T03:15:01;97049.56;;;-1.26
80537;BMP280;69867;47.074;15.404;2023-12-20T03:17:27;97045.38;;;-1.22
80537;BMP280;69867;47.074;15.404;2023-12-20T03:19:52;97040.25;;;-1.24
80537;BMP280;69867;47.074;15.404;2023-12-20T03:22:17;97041.06;;;-1.25
80537;BMP280;69867;47.074;15.404;2023-12-20T03:24:43;97038.53;;;-1.25
80537;BMP280;69867;47.074;15.404;2023-12-20T03:27:08;97031.69;;;-1.27
80537;BMP280;69867;47.074;15.404;2023-12-20T03:29:33;97029.19;;;-1.26
80537;BMP280;69867;47.074;15.404;2023-12-20T03:31:58;97023.19;;;-1.28
80537;BMP280;69867;47.074;15.404;2023-12-20T03:34:24;97021.50;;;-1.27
80537;BMP280;69867;47.074;15.404;2023-12-20T03:36:49;97024.03;;;-1.29
80537;BMP280;69867;47.074;15.404;2023-12-20T03:39:14;97024.91;;;-1.27
80537;BMP280;69867;47.074;15.404;2023-12-20T03:41:40;97022.47;;;-1.18
80537;BMP280;69867;47.074;15.404;2023-12-20T03:44:05;97028.41;;;-1.19
80537;BMP280;69867;47.074;15.404;2023-12-20T03:46:30;97031.81;;;-1.18
80537;BMP280;69867;47.074;15.404;2023-12-20T03:48:56;97036.03;;;-1.22
80537;BMP280;69867;47.074;15.404;2023-12-20T03:51:21;97035.13;;;-1.25
80537;BMP280;69867;47.074;15.404;2023-12-20T03:53:46;97025.94;;;-1.13
80537;BMP280;69867;47.074;15.404;2023-12-20T03:56:12;97034.38;;;-1.18
80537;BMP280;69867;47.074;15.404;2023-12-20T03:58:37;97038.56;;;-1.22
80537;BMP280;69867;47.074;15.404;2023-12-20T04:01:02;97034.28;;;-1.26
80537;BMP280;69867;47.074;15.404;2023-12-20T04:03:28;97033.38;;;-1.30
80537;BMP280;69867;47.074;15.404;2023-12-20T04:05:53;97032.41;;;-1.35
80537;BMP280;69867;47.074;15.404;2023-12-20T04:08:18;97030.69;;;-1.36
80537;BMP280;69867;47.074;15.404;2023-12-20T04:10:44;97032.44;;;-1.33
80537;BMP280;69867;47.074;15.404;2023-12-20T04:13:09;97036.72;;;-1.31
80537;BMP280;69867;47.074;15.404;2023-12-20T04:15:34;97033.38;;;-1.30
80537;BMP280;69867;47.074;15.404;2023-12-20T04:18:00;97033.28;;;-1.33
80537;BMP280;69867;47.074;15.404;2023-12-20T04:20:25;97029.88;;;-1.33
80537;BMP280;69867;47.074;15.404;2023-12-20T04:22:51;97035.81;;;-1.34
80537;BMP280;69867;47.074;15.404;2023-12-20T04:25:16;97012.03;;;-1.35
80537;BMP280;69867;47.074;15.404;2023-12-20T04:27:42;97015.47;;;-1.33
80537;BMP280;69867;47.074;15.404;2023-12-20T04:30:07;97018.00;;;-1.33
80537;BMP280;69867;47.074;15.404;2023-12-20T04:32:33;97018.06;;;-1.30
80537;BMP280;69867;47.074;15.404;2023-12-20T04:34:58;97014.69;;;-1.28
80537;BMP280;69867;47.074;15.404;2023-12-20T04:37:23;97016.34;;;-1.31
80537;BMP280;69867;47.074;15.404;2023-12-20T04:39:49;97018.84;;;-1.34
80537;BMP280;69867;47.074;15.404;2023-12-20T04:42:14;97012.00;;;-1.36
80537;BMP280;69867;47.074;15.404;2023-12-20T04:44:39;97012.84;;;-1.37
80537;BMP280;69867;47.074;15.404;2023-12-20T04:47:05;97013.69;;;-1.38
80537;BMP280;69867;47.074;15.404;2023-12-20T04:49:30;97022.25;;;-1.33
80537;BMP280;69867;47.074;15.404;2023-12-20T04:51:55;97018.88;;;-1.32
80537;BMP280;69867;47.074;15.404;2023-12-20T04:54:21;97007.03;;;-1.30
80537;BMP280;69867;47.074;15.404;2023-12-20T04:56:46;97018.88;;;-1.31
80537;BMP280;69867;47.074;15.404;2023-12-20T04:59:11;97016.28;;;-1.35
80537;BMP280;69867;47.074;15.404;2023-12-20T05:01:37;97020.53;;;-1.34
80537;BMP280;69867;47.074;15.404;2023-12-20T05:04:02;97013.72;;;-1.35
80537;BMP280;69867;47.074;15.404;2023-12-20T05:06:27;97020.44;;;-1.40
80537;BMP280;69867;47.074;15.404;2023-12-20T05:08:53;97022.13;;;-1.42
80537;BMP280;69867;47.074;15.404;2023-12-20T05:11:18;97021.22;;;-1.44
80537;BMP280;69867;47.074;15.404;2023-12-20T05:13:43;97016.94;;;-1.47
80537;BMP280;69867;47.074;15.404;2023-12-20T05:16:09;97016.13;;;-1.46
80537;BMP280;69867;47.074;15.404;2023-12-20T05:18:34;97005.06;;;-1.46
80537;BMP280;69867;47.074;15.404;2023-12-20T05:20:59;97014.44;;;-1.45
80537;BMP280;69867;47.074;15.404;2023-12-20T05:23:25;97016.09;;;-1.47
80537;BMP280;69867;47.074;15.404;2023-12-20T05:25:50;97008.44;;;-1.47
80537;BMP280;69867;47.074;15.404;2023-12-20T05:28:15;97001.66;;;-1.48
80537;BMP280;69867;47.074;15.404;2023-12-20T05:30:41;97005.91;;;-1.47
80537;BMP280;69867;47.074;15.404;2023-12-20T05:33:06;96996.53;;;-1.48
80537;BMP280;69867;47.074;15.404;2023-12-20T05:35:31;96999.13;;;-1.47
80537;BMP280;69867;47.074;15.404;2023-12-20T05:37:57;96994.91;;;-1.45
80537;BMP280;69867;47.074;15.404;2023-12-20T05:40:22;96994.09;;;-1.42
80537;BMP280;69867;47.074;15.404;2023-12-20T05:42:47;96987.34;;;-1.39
80537;BMP280;69867;47.074;15.404;2023-12-20T05:45:14;96983.09;;;-1.38
80537;BMP280;69867;47.074;15.404;2023-12-20T05:47:39;96985.72;;;-1.34
80537;BMP280;69867;47.074;15.404;2023-12-20T05:50:05;96990.91;;;-1.29
80537;BMP280;69867;47.074;15.404;2023-12-20T05:52:30;96996.03;;;-1.26
80537;BMP280;69867;47.074;15.404;2023-12-20T05:54:56;97000.34;;;-1.22
80537;BMP280;69867;47.074;15.404;2023-12-20T05:57:21;97000.38;;;-1.19
80537;BMP280;69867;47.074;15.404;2023-12-20T05:59:46;96999.59;;;-1.15
80537;BMP280;69867;47.074;15.404;2023-12-20T06:02:12;97003.06;;;-1.08
80537;BMP280;69867;47.074;15.404;2023-12-20T06:04:37;96998.88;;;-1.03
80537;BMP280;69867;47.074;15.404;2023-12-20T06:07:06;97007.47;;;-0.97
80537;BMP280;69867;47.074;15.404;2023-12-20T06:09:32;96999.88;;;-0.90
80537;BMP280;69867;47.074;15.404;2023-12-20T06:11:57;96994.84;;;-0.84
80537;BMP280;69867;47.074;15.404;2023-12-20T06:14:22;96995.75;;;-0.79
80537;BMP280;69867;47.074;15.404;2023-12-20T06:16:48;96995.81;;;-0.75
80537;BMP280;69867;47.074;15.404;2023-12-20T06:19:13;96990.75;;;-0.70
80537;BMP280;69867;47.074;15.404;2023-12-20T06:21:38;97001.94;;;-0.60
80537;BMP280;69867;47.074;15.404;2023-12-20T06:24:04;97005.47;;;-0.48
80537;BMP280;69867;47.074;15.404;2023-12-20T06:26:29;97004.59;;;-0.50
80537;BMP280;69867;47.074;15.404;2023-12-20T06:28:55;96993.56;;;-0.46
80537;BMP280;69867;47.074;15.404;2023-12-20T06:31:20;96985.94;;;-0.43
80537;BMP280;69867;47.074;15.404;2023-12-20T06:33:46;96986.81;;;-0.41
80537;BMP280;69867;47.074;15.404;2023-12-20T06:36:12;96993.66;;;-0.37
80537;BMP280;69867;47.074;15.404;2023-12-20T06:38:38;96990.28;;;-0.34
80537;BMP280;69867;47.074;15.404;2023-12-20T06:41:03;96990.31;;;-0.31
80537;BMP280;69867;47.074;15.404;2023-12-20T06:43:28;97009.06;;;-0.27
80537;BMP280;69867;47.074;15.404;2023-12-20T06:45:53;97009.97;;;-0.22
80537;BMP280;69867;47.074;15.404;2023-12-20T06:48:19;97004.91;;;-0.19
80537;BMP280;69867;47.074;15.404;2023-12-20T06:50:44;97011.72;;;-0.18
80537;BMP280;69867;47.074;15.404;2023-12-20T06:53:09;97008.34;;;-0.14
80537;BMP280;69867;47.074;15.404;2023-12-20T06:55:35;97016.91;;;-0.09
80537;BMP280;69867;47.074;15.404;2023-12-20T06:58:01;97017.81;;;-0.03
80537;BMP280;69867;47.074;15.404;2023-12-20T07:00:27;97016.22;;;0.06
80537;BMP280;69867;47.074;15.404;2023-12-20T07:02:52;97022.22;;;0.12
80537;BMP280;69867;47.074;15.404;2023-12-20T07:05:17;97023.97;;;0.16
80537;BMP280;69867;47.074;15.404;2023-12-20T07:07:43;97034.25;;;0.24
80537;BMP280;69867;47.074;15.404;2023-12-20T07:10:08;97036.03;;;0.32
80537;BMP280;69867;47.074;15.404;2023-12-20T07:12:33;97040.31;;;0.38
80537;BMP280;69867;47.074;15.404;2023-12-20T07:14:59;97043.78;;;0.45
80537;BMP280;69867;47.074;15.404;2023-12-20T07:17:24;97048.09;;;0.52
80537;BMP280;69867;47.074;15.404;2023-12-20T07:19:50;97054.94;;;0.56
80537;BMP280;69867;47.074;15.404;2023-12-20T07:22:15;97059.22;;;0.57
80537;BMP280;69867;47.074;15.404;2023-12-20T07:24:40;97055.78;;;0.56
80537;BMP280;69867;47.074;15.404;2023-12-20T07:27:06;97067.78;;;0.65
80537;BMP280;69867;47.074;15.404;2023-12-20T07:29:31;97068.69;;;0.70
80537;BMP280;69867;47.074;15.404;2023-12-20T07:31:56;97075.53;;;0.77
80537;BMP280;69867;47.074;15.404;2023-12-20T07:34:22;97075.56;;;0.82
80537;BMP280;69867;47.074;15.404;2023-12-20T07:36:47;97075.63;;;0.88
80537;BMP280;69867;47.074;15.404;2023-12-20T07:39:14;97081.63;;;0.98
80537;BMP280;69867;47.074;15.404;2023-12-20T07:41:39;97089.38;;;1.10
80537;BMP280;69867;47.074;15.404;2023-12-20T07:44:04;97076.63;;;1.17
80537;BMP280;69867;47.074;15.404;2023-12-20T07:46:30;97070.72;;;1.26
80537;BMP280;69867;47.074;15.404;2023-12-20T07:48:55;97087.00;;;1.37
80537;BMP280;69867;47.074;15.404;2023-12-20T07:51:21;97092.19;;;1.49
80537;BMP280;69867;47.074;15.404;2023-12-20T07:53:46;97088.78;;;1.52
80537;BMP280;69867;47.074;15.404;2023-12-20T07:56:16;97096.44;;;1.50
80537;BMP280;69867;47.074;15.404;2023-12-20T07:58:42;97105.00;;;1.55
80537;BMP280;69867;47.074;15.404;2023-12-20T08:01:07;97110.13;;;1.58
80537;BMP280;69867;47.074;15.404;2023-12-20T08:03:32;97113.56;;;1.60
80537;BMP280;69867;47.074;15.404;2023-12-20T08:05:58;97110.16;;;1.65
80537;BMP280;69867;47.074;15.404;2023-12-20T08:08:23;97107.59;;;1.65
80537;BMP280;69867;47.074;15.404;2023-12-20T08:10:48;97117.00;;;1.70
80537;BMP280;69867;47.074;15.404;2023-12-20T08:13:14;97117.03;;;1.76
80537;BMP280;69867;47.074;15.404;2023-12-20T08:15:39;97108.50;;;1.79
80537;BMP280;69867;47.074;15.404;2023-12-20T08:18:05;97112.78;;;1.84
80537;BMP280;69867;47.074;15.404;2023-12-20T08:20:30;97103.44;;;1.97
80537;BMP280;69867;47.074;15.404;2023-12-20T08:22:55;97105.16;;;2.03
80537;BMP280;69867;47.074;15.404;2023-12-20T08:25:21;97110.31;;;2.10
80537;BMP280;69867;47.074;15.404;2023-12-20T08:27:46;97115.47;;;2.25
80537;BMP280;69867;47.074;15.404;2023-12-20T08:30:11;97110.34;;;2.33
80537;BMP280;69867;47.074;15.404;2023-12-20T08:32:37;97105.22;;;2.38
80537;BMP280;69867;47.074;15.404;2023-12-20T08:35:02;97109.50;;;2.45
80537;BMP280;69867;47.074;15.404;2023-12-20T08:37:29;97117.19;;;2.54
80537;BMP280;69867;47.074;15.404;2023-12-20T08:39:54;97109.53;;;2.60
80537;BMP280;69867;47.074;15.404;2023-12-20T08:42:19;97121.50;;;2.75
80537;BMP280;69867;47.074;15.404;2023-12-20T08:44:45;97118.94;;;2.85
80537;BMP280;69867;47.074;15.404;2023-12-20T08:47:10;97121.50;;;2.96
80537;BMP280;69867;47.074;15.404;2023-12-20T08:49:35;97118.91;;;3.07
80537;BMP280;69867;47.074;15.404;2023-12-20T08:52:01;97121.47;;;3.16
80537;BMP280;69867;47.074;15.404;2023-12-20T08:54:26;97124.88;;;3.22
80537;BMP280;69867;47.074;15.404;2023-12-20T08:56:51;97120.56;;;3.32
80537;BMP280;69867;47.074;15.404;2023-12-20T08:59:17;97130.84;;;3.38
80537;BMP280;69867;47.074;15.404;2023-12-20T09:01:42;97135.97;;;3.41
80537;BMP280;69867;47.074;15.404;2023-12-20T09:04:07;97139.38;;;3.49
80537;BMP280;69867;47.074;15.404;2023-12-20T09:06:33;97134.22;;;3.51
80537;BMP280;69867;47.074;15.404;2023-12-20T09:08:58;97121.34;;;3.62
80537;BMP280;69867;47.074;15.404;2023-12-20T09:11:24;97120.47;;;3.69
80537;BMP280;69867;47.074;15.404;2023-12-20T09:13:49;97110.16;;;3.75
80537;BMP280;69867;47.074;15.404;2023-12-20T09:16:14;97105.88;;;3.75
80537;BMP280;69867;47.074;15.404;2023-12-20T09:18:40;97092.13;;;3.85
80537;BMP280;69867;47.074;15.404;2023-12-20T09:21:05;97111.91;;;3.70
80537;BMP280;69867;47.074;15.404;2023-12-20T09:23:30;97115.31;;;3.73
80537;BMP280;69867;47.074;15.404;2023-12-20T09:25:56;97106.72;;;3.79
80537;BMP280;69867;47.074;15.404;2023-12-20T09:28:21;97110.13;;;3.85
80537;BMP280;69867;47.074;15.404;2023-12-20T09:30:46;97098.97;;;3.90
80537;BMP280;69867;47.074;15.404;2023-12-20T09:33:12;97110.94;;;3.97
80537;BMP280;69867;47.074;15.404;2023-12-20T09:35:37;97115.19;;;4.05
80537;BMP280;69867;47.074;15.404;2023-12-20T09:38:03;97119.44;;;4.11
80537;BMP280;69867;47.074;15.404;2023-12-20T09:40:28;97122.81;;;4.19
80537;BMP280;69867;47.074;15.404;2023-12-20T09:42:59;97116.78;;;4.28
80537;BMP280;69867;47.074;15.404;2023-12-20T09:45:29;97109.91;;;4.30
80537;BMP280;69867;47.074;15.404;2023-12-20T09:47:56;97111.56;;;4.40
80537;BMP280;69867;47.074;15.404;2023-12-20T09:50:23;97102.94;;;4.47
80537;BMP280;69867;47.074;15.404;2023-12-20T09:52:53;97084.91;;;4.50
80537;BMP280;69867;47.074;15.404;2023-12-20T09:55:19;97072.00;;;4.56
80537;BMP280;69867;47.074;15.404;2023-12-20T09:57:46;97092.66;;;4.45
80537;BMP280;69867;47.074;15.404;2023-12-20T10:00:12;97090.97;;;4.40
80537;BMP280;69867;47.074;15.404;2023-12-20T10:02:44;97082.31;;;4.53
80537;BMP280;69867;47.074;15.404;2023-12-20T10:05:16;97078.81;;;4.60
80537;BMP280;69867;47.074;15.404;2023-12-20T10:07:41;97080.44;;;4.70
80537;BMP280;69867;47.074;15.404;2023-12-20T10:10:07;97073.50;;;4.78
80537;BMP280;69867;47.074;15.404;2023-12-20T10:12:32;97088.88;;;4.88
80537;BMP280;69867;47.074;15.404;2023-12-20T10:14:58;97090.53;;;4.93
80537;BMP280;69867;47.074;15.404;2023-12-20T10:17:23;97082.81;;;4.95
80537;BMP280;69867;47.074;15.404;2023-12-20T10:19:49;97072.47;;;4.99
80537;BMP280;69867;47.074;15.404;2023-12-20T10:22:15;97069.00;;;5.02
80537;BMP280;69867;47.074;15.404;2023-12-20T10:24:40;97074.91;;;5.13
80537;BMP280;69867;47.074;15.404;2023-12-20T10:27:07;97071.38;;;5.25
80537;BMP280;69867;47.074;15.404;2023-12-20T10:29:36;97066.13;;;5.34
80537;BMP280;69867;47.074;15.404;2023-12-20T10:32:26;97064.41;;;5.33
80537;BMP280;69867;47.074;15.404;2023-12-20T10:34:55;97067.94;;;5.26
80537;BMP280;69867;47.074;15.404;2023-12-20T10:37:21;97072.28;;;5.18
80537;BMP280;69867;47.074;15.404;2023-12-20T10:39:51;97062.91;;;5.12
80537;BMP280;69867;47.074;15.404;2023-12-20T10:42:20;97061.13;;;5.20
80537;BMP280;69867;47.074;15.404;2023-12-20T10:44:46;97061.13;;;5.20
80537;BMP280;69867;47.074;15.404;2023-12-20T10:47:13;97067.09;;;5.24
80537;BMP280;69867;47.074;15.404;2023-12-20T10:49:39;97060.25;;;5.18
80537;BMP280;69867;47.074;15.404;2023-12-20T10:52:05;97051.63;;;5.24
80537;BMP280;69867;47.074;15.404;2023-12-20T10:54:31;97053.34;;;5.26
80537;BMP280;69867;47.074;15.404;2023-12-20T10:56:57;97058.44;;;5.29
80537;BMP280;69867;47.074;15.404;2023-12-20T10:59:24;97050.78;;;5.25
80537;BMP280;69867;47.074;15.404;2023-12-20T11:01:50;97048.22;;;5.23
80537;BMP280;69867;47.074;15.404;2023-12-20T11:04:23;97043.03;;;5.26
80537;BMP280;69867;47.074;15.404;2023-12-20T11:07:13;97045.56;;;5.31
80537;BMP280;69867;47.074;15.404;2023-12-20T11:09:45;97042.06;;;5.35
80537;BMP280;69867;47.074;15.404;2023-12-20T11:15:17;97044.47;;;5.49
80537;BMP280;69867;47.074;15.404;2023-12-20T11:17:44;97040.97;;;5.54
80537;BMP280;69867;47.074;15.404;2023-12-20T11:20:10;97037.50;;;5.57
80537;BMP280;69867;47.074;15.404;2023-12-20T11:22:36;97046.94;;;5.58
80537;BMP280;69867;47.074;15.404;2023-12-20T11:25:06;97040.06;;;5.60
80537;BMP280;69867;47.074;15.404;2023-12-20T11:27:32;97035.72;;;5.63
80537;BMP280;69867;47.074;15.404;2023-12-20T11:29:58;97033.06;;;5.68
80537;BMP280;69867;47.074;15.404;2023-12-20T11:34:51;97039.84;;;5.76
80537;BMP280;69867;47.074;15.404;2023-12-20T11:37:16;97030.34;;;5.80
80537;BMP280;69867;47.074;15.404;2023-12-20T11:39:44;97022.66;;;5.77
80537;BMP280;69867;47.074;15.404;2023-12-20T11:42:10;97023.47;;;5.79
80537;BMP280;69867;47.074;15.404;2023-12-20T11:44:36;97021.84;;;5.73
80537;BMP280;69867;47.074;15.404;2023-12-20T11:47:02;97025.31;;;5.69
80537;BMP280;69867;47.074;15.404;2023-12-20T11:49:27;97020.97;;;5.73
80537;BMP280;69867;47.074;15.404;2023-12-20T11:51:52;97024.56;;;5.63
80537;BMP280;69867;47.074;15.404;2023-12-20T11:54:18;97026.09;;;5.76
80537;BMP280;69867;47.074;15.404;2023-12-20T11:56:43;97015.69;;;5.82
80537;BMP280;69867;47.074;15.404;2023-12-20T11:59:09;97007.81;;;5.94
80537;BMP280;69867;47.074;15.404;2023-12-20T12:01:34;96996.50;;;6.04
80537;BMP280;69867;47.074;15.404;2023-12-20T12:04:04;96998.13;;;6.12
80537;BMP280;69867;47.074;15.404;2023-12-20T12:06:29;96994.59;;;6.17
80537;BMP280;69867;47.074;15.404;2023-12-20T12:08:54;96993.84;;;6.10
80537;BMP280;69867;47.074;15.404;2023-12-20T12:11:20;96996.25;;;6.21
80537;BMP280;69867;47.074;15.404;2023-12-20T12:13:45;96991.88;;;6.25
80537;BMP280;69867;47.074;15.404;2023-12-20T12:16:11;96987.53;;;6.28
80537;BMP280;69867;47.074;15.404;2023-12-20T12:18:36;96983.22;;;6.29
80537;BMP280;69867;47.074;15.404;2023-12-20T12:21:01;96980.59;;;6.32
80537;BMP280;69867;47.074;15.404;2023-12-20T12:23:27;96979.75;;;6.30
80537;BMP280;69867;47.074;15.404;2023-12-20T12:25:52;96979.75;;;6.30
80537;BMP280;69867;47.074;15.404;2023-12-20T12:28:18;96972.91;;;6.29
80537;BMP280;69867;47.074;15.404;2023-12-20T12:30:56;96968.56;;;6.31
80537;BMP280;69867;47.074;15.404;2023-12-20T12:33:21;96964.31;;;6.28
80537;BMP280;69867;47.074;15.404;2023-12-20T12:35:47;96968.56;;;6.31
80537;BMP280;69867;47.074;15.404;2023-12-20T12:38:13;96971.13;;;6.32
80537;BMP280;69867;47.074;15.404;2023-12-20T12:40:38;96963.34;;;6.34
80537;BMP280;69867;47.074;15.404;2023-12-20T12:43:03;96961.69;;;6.30
80537;BMP280;69867;47.074;15.404;2023-12-20T12:45:29;96961.69;;;6.31
80537;BMP280;69867;47.074;15.404;2023-12-20T12:47:54;96969.38;;;6.34
80537;BMP280;69867;47.074;15.404;2023-12-20T12:50:20;96971.09;;;6.34
80537;BMP280;69867;47.074;15.404;2023-12-20T12:52:45;96963.34;;;6.34
80537;BMP280;69867;47.074;15.404;2023-12-20T12:55:10;96961.59;;;6.36
80537;BMP280;69867;47.074;15.404;2023-12-20T12:57:36;96966.81;;;6.33
80537;BMP280;69867;47.074;15.404;2023-12-20T13:00:01;96987.00;;;6.06
80537;BMP280;69867;47.074;15.404;2023-12-20T13:02:27;96966.28;;;6.13
80537;BMP280;69867;47.074;15.404;2023-12-20T13:04:52;96973.91;;;6.20
80537;BMP280;69867;47.074;15.404;2023-12-20T13:07:17;96974.69;;;6.25
80537;BMP280;69867;47.074;15.404;2023-12-20T13:09:43;96965.13;;;6.30
80537;BMP280;69867;47.074;15.404;2023-12-20T13:12:08;96945.28;;;6.35
80537;BMP280;69867;47.074;15.404;2023-12-20T13:14:34;96958.94;;;6.40
80537;BMP280;69867;47.074;15.404;2023-12-20T13:17:01;96954.75;;;6.35
80537;BMP280;69867;47.074;15.404;2023-12-20T13:19:26;96956.31;;;6.43
80537;BMP280;69867;47.074;15.404;2023-12-20T13:21:51;96945.06;;;6.48
80537;BMP280;69867;47.074;15.404;2023-12-20T13:24:17;96959.88;;;6.36
80537;BMP280;69867;47.074;15.404;2023-12-20T13:26:42;96961.53;;;6.40
80537;BMP280;69867;47.074;15.404;2023-12-20T13:29:07;96948.63;;;6.40
80537;BMP280;69867;47.074;15.404;2023-12-20T13:31:33;96954.63;;;6.41
80537;BMP280;69867;47.074;15.404;2023-12-20T13:33:58;96952.94;;;6.40
80537;BMP280;69867;47.074;15.404;2023-12-20T13:36:23;96947.78;;;6.40
80537;BMP280;69867;47.074;15.404;2023-12-20T13:38:49;96953.72;;;6.43
80537;BMP280;69867;47.074;15.404;2023-12-20T13:41:14;96963.19;;;6.43
80537;BMP280;69867;47.074;15.404;2023-12-20T13:43:40;96957.19;;;6.42
80537;BMP280;69867;47.074;15.404;2023-12-20T13:46:05;96960.72;;;6.37
80537;BMP280;69867;47.074;15.404;2023-12-20T13:48:31;96953.94;;;6.31
80537;BMP280;69867;47.074;15.404;2023-12-20T13:50:56;96959.13;;;6.30
80537;BMP280;69867;47.074;15.404;2023-12-20T13:53:21;96958.31;;;6.28
80537;BMP280;69867;47.074;15.404;2023-12-20T13:55:47;96960.94;;;6.25
80537;BMP280;69867;47.074;15.404;2023-12-20T13:58:12;96957.53;;;6.21